• Join FlightAware (Why Join?)
  • Login
  • US Flag 
03:38PM EST


 

Airport Tracker/Info


-or-


 

Live Flight TrackerFlight Track Log ✈ UPS98 ✈ 18-Jul-2013 ✈ PANC - RJAA / NRT

Flight Track Log - Related Links

Times and Time Zones

All times are in EDT time to prevent confusion due to time zone crossing. See the UPS98 flight status page for this flight to view local times or setup timezone preferences in your user account.

Time Position Orientation Groundspeed Altitude Reporting Facility
EDT Latitude Longitude Course Direction KTS MPH feet Rate Location/Type
02:28PM 61.2100 -150.0210 338° Northwest 172 198 800  Level FlightAware
02:28PM 61.2260 -150.0400 330° Northwest 181 208 1,400 1,980 Climbing FlightAware
02:29PM 61.2430 -150.0640 326° Northwest 181 208 2,300 1,920 Climbing FlightAware
02:29PM 61.2590 -150.1220 300° West 203 234 3,300 1,380 Climbing FlightAware
02:30PM 61.2630 -150.2020 276° West 261 300 3,800 600 Climbing FlightAware
02:30PM 61.2660 -150.2580 276° West 262 302 3,800 120 Level FlightAware
02:30PM 61.2700 -150.3210 278° West 261 300 3,900 1,260 Climbing FlightAware
02:31PM 61.2710 -150.3970 272° West 263 303 5,000 2,640 Climbing FlightAware
02:31PM 61.2720 -150.4690 272° West 271 312 6,500 3,240 Climbing FlightAware
02:32PM 61.2730 -150.5280 272° West 270 311 7,800 3,180 Climbing FlightAware
02:32PM 61.2740 -150.6030 272° West 272 313 9,300 2,820 Climbing FlightAware
02:33PM 61.2750 -150.6990 271° West 287 330 10,900 1,980 Climbing FlightAware
02:34PM 61.2770 -150.8400 272° West 332 382 12,100 1,500 Climbing FlightAware
02:34PM 61.2780 -150.9530 271° West 361 415 13,000 2,040 Climbing FlightAware
02:35PM 61.2790 -151.0810 271° West 372 428 14,500 2,580 Climbing FlightAware
02:36PM 61.2800 -151.2450 271° West 376 433 16,600 2,520 Climbing FlightAware
02:36PM 61.2810 -151.3780 271° West 385 443 18,000 2,280 Climbing FlightAware
02:37PM 61.2820 -151.5290 271° West 393 452 19,500 1,920 Climbing FlightAware
02:37PM 61.2830 -151.6800 271° West 406 467 20,600 1,860 Climbing FlightAware
02:38PM 61.2840 -151.8680 271° West 412 474 22,300 1,920 Climbing FlightAware
02:39PM 61.2840 -152.0190 270° West 418 481 23,400 1,920 Climbing FlightAware
02:40PM 61.2850 -152.1890 271° West 420 483 24,900 1,920 Climbing FlightAware
02:40PM 61.2850 -152.3510 270° West 422 486 26,100 1,500 Climbing FlightAware
02:41PM 61.2860 -152.5030 271° West 427 491 26,900 1,680 Climbing FlightAware
02:42PM 61.2860 -152.6850 270° West 424 488 28,400 2,040 Climbing FlightAware
02:42PM 61.2860 -152.8390 270° West 416 479 29,800 1,860 Climbing FlightAware
02:43PM 61.2860 -152.9740 270° West 415 478 30,700 1,200 Climbing FlightAware
02:44PM 61.2860 -153.2220 270° West 428 493 31,700 1,020 Climbing FlightAware
02:45PM 61.2850 -153.4110 269° West 430 495 32,600 1,260 Climbing FlightAware
02:45PM 61.2850 -153.5840 270° West 427 491 33,600 1,080 Climbing FlightAware
02:46PM 61.2840 -153.7230 269° West 423 487 34,000 300 Climbing FlightAware
02:47PM 61.2830 -153.9000 269° West 419 482 34,000  Level FlightAware
02:47PM 61.2810 -154.0520 268° West 423 487 34,000  Level FlightAware
02:48PM 61.2800 -154.1980 269° West 426 490 34,000  Level FlightAware
02:49PM 61.2780 -154.3880 269° West 426 490 34,000  Level FlightAware
02:49PM 61.2760 -154.5520 269° West 426 490 34,000 300 Level FlightAware
02:50PM 61.2740 -154.7290 269° West 422 486 34,500 660 Climbing FlightAware
02:51PM 61.2710 -154.8910 268° West 427 491 35,000 480 Climbing FlightAware
02:52PM 61.2680 -155.1130 268° West 427 491 35,300 180 Climbing FlightAware
02:52PM 61.2660 -155.2420 268° West 427 491 35,300  Level FlightAware
02:53PM 61.2630 -155.3680 267° West 427 491 35,300  Level FlightAware
02:54PM 61.2610 -155.5350 269° West 427 491 35,300  Level FlightAware
02:55PM 61.2570 -155.7440 268° West 427 491 35,300  Level FlightAware
02:55PM 61.2550 -155.8740 268° West 427 491 35,300  Level FlightAware
02:56PM 61.2520 -156.0410 268° West 427 491 35,300  Level FlightAware
02:57PM 61.2500 -156.1670 268° West 427 491 35,300  Level FlightAware
02:58PM 61.2470 -156.3340 268° West 427 491 35,300  Level FlightAware
02:58PM 61.2450 -156.4600 268° West 427 491 35,300  Level FlightAware
02:59PM 61.2420 -156.6270 268° West 427 491 35,300  Level FlightAware
03:00PM 61.2400 -156.7560 268° West 427 491 35,300  Level FlightAware
03:01PM 61.2360 -156.9580 268° West 427 491 35,300 300 Level FlightAware
03:02PM 61.2500 -157.5833 268° West 440 506 36,000 300 Climbing Anchorage Center
03:03PM 61.2500 -157.8333 270° West 440 506 36,000  Level Anchorage Center
03:04PM 61.2333 -158.0833 262° West 440 506 36,000  Level Anchorage Center
03:05PM 61.2333 -158.3333 270° West 430 495 36,000  Level Anchorage Center
03:06PM 61.2333 -158.5833 270° West 440 506 36,000  Level Anchorage Center
03:07PM 61.2333 -158.8500 270° West 440 506 36,000  Level Anchorage Center
03:08PM 61.2333 -159.1000 270° West 450 518 36,000  Level Anchorage Center
03:09PM 61.2167 -159.3667 263° West 440 506 36,000  Level Anchorage Center
03:10PM 61.2167 -159.6167 270° West 440 506 36,000  Level Anchorage Center
03:11PM 61.2167 -159.8667 270° West 430 495 36,000  Level Anchorage Center
03:12PM 61.2167 -160.1333 270° West 440 506 36,000  Level Anchorage Center
03:13PM 61.2000 -160.3833 262° West 440 506 36,000  Level Anchorage Center
03:14PM 61.2000 -160.6333 270° West 440 506 36,000  Level Anchorage Center
03:15PM 61.1833 -160.8833 262° West 450 518 36,000  Level Anchorage Center
03:16PM 61.1833 -161.1500 270° West 450 518 36,000  Level Anchorage Center
03:17PM 61.1667 -161.4167 263° West 450 518 36,000  Level Anchorage Center
03:18PM 61.1667 -161.7167 270° West 460 529 36,000  Level Anchorage Center
03:19PM 61.1500 -161.9833 263° West 440 506 36,000  Level Anchorage Center
03:20PM 61.1333 -162.2333 262° West 440 506 36,000  Level Anchorage Center
03:21PM 61.1333 -162.5000 270° West 450 518 36,000  Level Anchorage Center
03:22PM 61.1167 -162.7667 263° West 450 518 36,000  Level Anchorage Center
03:23PM 61.1167 -162.9667 270° West 440 506 36,000  Level Anchorage Center
03:24PM 61.0667 -163.2500 250° West 440 506 36,000  Level Anchorage Center
03:25PM 61.0333 -163.5000 255° West 440 506 36,000  Level Anchorage Center
03:26PM 61.0000 -163.7500 255° West 440 506 36,000  Level Anchorage Center
03:27PM 60.9667 -164.0000 255° West 440 506 36,000  Level Anchorage Center
03:28PM 60.9333 -164.2500 255° West 450 518 36,000  Level Anchorage Center
03:29PM 60.8833 -164.5000 248° West 450 518 36,000  Level Anchorage Center
03:30PM 60.8500 -164.7500 255° West 440 506 36,000  Level Anchorage Center
03:31PM 60.8167 -164.9833 254° West 440 506 36,000  Level Anchorage Center
03:32PM 60.7833 -165.2333 255° West 450 518 36,000  Level Anchorage Center
03:33PM 60.7333 -165.4667 246° West 440 506 36,000  Level Anchorage Center
03:34PM 60.7000 -165.7167 255° West 440 506 36,000  Level Anchorage Center
03:35PM 60.6667 -165.9500 254° West 440 506 36,000  Level Anchorage Center
03:36PM 60.6167 -166.2000 248° West 440 506 36,000  Level Anchorage Center
03:37PM 60.5667 -166.4833 250° West 440 506 36,000  Level Anchorage Center
03:38PM 60.5333 -166.7167 254° West 450 518 36,000  Level Anchorage Center
03:39PM 60.4833 -166.9500 247° West 440 506 36,000  Level Anchorage Center
03:40PM 60.4500 -167.2000 255° West 440 506 36,000  Level Anchorage Center
03:41PM 60.4000 -167.4333 247° West 450 518 36,000  Level Anchorage Center
03:42PM 60.3667 -167.6833 255° West 450 518 36,000  Level Anchorage Center
03:43PM 60.3167 -167.9167 247° West 450 518 36,000  Level Anchorage Center
03:44PM 60.2833 -168.1500 254° West 450 518 36,000  Level Anchorage Center
03:45PM 60.2333 -168.3833 247° West 440 506 36,000  Level Anchorage Center
03:46PM 60.1833 -168.6167 247° West 450 518 36,000  Level Anchorage Center
03:47PM 60.1500 -168.8667 255° West 450 518 36,000  Level Anchorage Center
03:48PM 60.1000 -169.1000 247° West 450 518 36,000  Level Anchorage Center
03:49PM 60.0500 -169.3333 247° West 450 518 36,000  Level Anchorage Center
03:50PM 60.0167 -169.5167 250° West 450 518 36,000  Level Anchorage Center
03:51PM 59.9667 -169.8000 251° West 450 518 36,000  Level Anchorage Center
03:52PM 59.9167 -170.0333 247° West 440 506 36,000  Level Anchorage Center
03:53PM 59.8833 -170.2167 250° West 450 518 36,000  Level Anchorage Center
03:54PM 59.8333 -170.4833 250° West 460 529 36,000  Level Anchorage Center
03:55PM 59.7833 -170.7167 247° West 460 529 36,000  Level Anchorage Center
03:56PM 59.7333 -170.9500 247° West 460 529 36,000  Level Anchorage Center
03:57PM 59.6833 -171.1833 247° West 460 529 36,000  Level Anchorage Center
03:58PM 59.6333 -171.4167 247° West 460 529 36,000  Level Anchorage Center
03:59PM 59.5833 -171.6500 247° West 460 529 36,000  Level Anchorage Center
04:00PM 59.5333 -171.8833 247° West 450 518 36,000  Level Anchorage Center
04:01PM 59.4833 -172.1167 247° West 460 529 36,000  Level Anchorage Center
04:02PM 59.4333 -172.3333 246° West 440 506 36,000  Level Anchorage Center
04:03PM 59.4000 -172.5667 254° West 440 506 36,000  Level Anchorage Center
04:04PM 59.3500 -172.7833 246° West 440 506 36,000  Level Anchorage Center
04:05PM 59.3000 -173.0333 249° West 460 529 36,000  Level Anchorage Center
04:06PM 59.2667 -173.2000 249° West 450 518 36,000  Level Anchorage Center
04:07PM 59.2000 -173.4833 245° Southwest 460 529 36,000  Level Anchorage Center
04:08PM 59.1500 -173.7167 247° West 460 529 36,000  Level Anchorage Center
04:09PM 59.1000 -173.9500 247° West 450 518 36,000  Level Anchorage Center
04:10PM 59.0500 -174.1667 246° West 460 529 36,000  Level Anchorage Center
04:11PM 59.0000 -174.4000 247° West 450 518 36,000  Level Anchorage Center
04:12PM 58.9500 -174.6167 246° West 440 506 36,000  Level Anchorage Center
04:13PM 58.9000 -174.8500 248° West 460 529 36,000  Level Anchorage Center
04:14PM 58.8500 -175.0833 248° West 460 529 36,000  Level Anchorage Center
04:15PM 58.8000 -175.3000 246° West 460 529 36,000  Level Anchorage Center
04:16PM 58.7500 -175.5333 248° West 460 529 36,000  Level Anchorage Center
04:17PM 58.7000 -175.7667 248° West 460 529 36,000  Level Anchorage Center
04:18PM 58.6500 -175.9833 246° West 460 529 36,000  Level Anchorage Center
04:19PM 58.5833 -176.2000 240° Southwest 460 529 36,000  Level Anchorage Center
04:20PM 58.5333 -176.4333 248° West 460 529 36,000  Level Anchorage Center
04:21PM 58.4833 -176.6500 246° West 460 529 36,000  Level Anchorage Center
04:22PM 58.4333 -176.8667 246° West 450 518 36,000  Level Anchorage Center
04:23PM 58.3667 -177.1000 241° Southwest 470 541 36,000  Level Anchorage Center
04:24PM 58.3167 -177.2833 243° Southwest 480 552 36,000  Level Anchorage Center
04:26PM 58.2667 -177.5833 244° Southwest 470 541 36,000  Level Anchorage Center
04:32PM 57.9145 -178.9331 243° Southwest 470 541 36,000  Level FlightAware Transoceanic
04:33PM 57.8544 -179.1555 243° Southwest 470 541 36,000  Level FlightAware Transoceanic
04:34PM 57.7940 -179.3771 243° Southwest 470 541 36,000  Level FlightAware Transoceanic
04:35PM 57.7331 -179.5980 243° Southwest 470 541 36,000  Level FlightAware Transoceanic
04:36PM 57.6719 -179.8181 242° Southwest 470 541 36,000  Level FlightAware Transoceanic
04:36PM 57.7000 -179.7000 243° Southwest 474 545 36,000  Level Anchorage Center
04:37PM 57.6103 179.9625 242° Southwest 470 541 36,000  Level FlightAware Transoceanic
04:38PM 57.5483 179.7438 242° Southwest 470 541 36,000  Level FlightAware Transoceanic
04:39PM 57.4859 179.5259 242° Southwest 470 541 36,000  Level FlightAware Transoceanic
04:40PM 57.4232 179.3088 242° Southwest 470 541 36,000  Level FlightAware Transoceanic
04:41PM 57.3601 179.0923 241° Southwest 470 541 36,000  Level FlightAware Transoceanic
04:42PM 57.2571 178.7571 241° Southwest 474 545 36,000  Level FlightAware Transoceanic
04:43PM 57.1923 178.5397 241° Southwest 474 545 36,000  Level FlightAware Transoceanic
04:44PM 57.1272 178.3231 241° Southwest 474 545 36,000  Level FlightAware Transoceanic
04:45PM 57.0616 178.1073 241° Southwest 474 545 36,000  Level FlightAware Transoceanic
04:45PM 57.1000 178.2000 241° Southwest 487 560 36,000  Level Anchorage Center
04:46PM 56.9957 177.8922 241° Southwest 474 545 36,000  Level FlightAware Transoceanic
04:47PM 56.9294 177.6779 240° Southwest 474 545 36,000  Level FlightAware Transoceanic
04:48PM 56.8628 177.4643 240° Southwest 474 545 36,000  Level FlightAware Transoceanic
04:49PM 56.7958 177.2515 240° Southwest 474 545 36,000  Level FlightAware Transoceanic
04:49PM 56.8333 177.3500 240° Southwest 477 549 36,000  Level Anchorage Center
04:50PM 56.7284 177.0395 240° Southwest 474 545 36,000  Level FlightAware Transoceanic
04:51PM 56.6922 176.9005 240° Southwest 487 560 36,000  Level FlightAware Transoceanic
04:52PM 56.6229 176.6867 239° Southwest 487 560 36,000  Level FlightAware Transoceanic
04:53PM 56.5532 176.4737 239° Southwest 487 560 36,000  Level FlightAware Transoceanic
04:54PM 56.4832 176.2614 239° Southwest 487 560 36,000  Level FlightAware Transoceanic
04:55PM 56.4316 176.1118 239° Southwest 477 549 36,000  Level FlightAware Transoceanic
04:55PM 56.4333 176.1167 239° Southwest 474 545 36,000  Level Anchorage Center
04:56PM 56.3634 175.9080 239° Southwest 477 549 36,000  Level FlightAware Transoceanic
04:57PM 56.2950 175.7049 239° Southwest 477 549 36,000  Level FlightAware Transoceanic
04:58PM 56.2262 175.5025 238° Southwest 477 549 36,000  Level FlightAware Transoceanic
04:59PM 56.1570 175.3009 238° Southwest 477 549 36,000  Level FlightAware Transoceanic
05:00PM 56.0876 175.1000 238° Southwest 477 549 36,000  Level FlightAware Transoceanic
05:01PM 56.0191 174.9032 238° Southwest 474 545 36,000  Level FlightAware Transoceanic
05:02PM 55.9489 174.7036 238° Southwest 474 545 36,000  Level FlightAware Transoceanic
05:02PM 55.8333 174.4000 237° Southwest 510 587 36,000  Level Anchorage Center
05:03PM 55.8784 174.5046 238° Southwest 474 545 36,000  Level FlightAware Transoceanic
05:03PM 55.7667 174.2167 237° Southwest 510 587 36,000  Level Anchorage Center
05:04PM 55.8075 174.3064 237° Southwest 474 545 36,000  Level FlightAware Transoceanic
05:04PM 55.6833 173.9833 238° Southwest 510 587 36,000  Level Anchorage Center
05:05PM 55.7364 174.1088 237° Southwest 474 545 36,000  Level FlightAware Transoceanic
05:05PM 55.6167 173.8000 237° Southwest 510 587 36,000  Level Anchorage Center
05:06PM 55.6649 173.9120 237° Southwest 474 545 36,000  Level FlightAware Transoceanic
05:06PM 55.5333 173.5667 238° Southwest 510 587 36,000  Level Anchorage Center
05:07PM 55.5931 173.7160 237° Southwest 474 545 36,000  Level FlightAware Transoceanic
05:07PM 55.4667 173.3833 237° Southwest 510 587 36,000  Level Anchorage Center
05:08PM 55.5210 173.5206 237° Southwest 474 545 36,000  Level FlightAware Transoceanic
05:08PM 55.3833 173.1500 238° Southwest 510 587 36,000  Level Anchorage Center
05:09PM 55.2833 172.9167 233° Southwest 520 598 36,000  Level Anchorage Center
05:10PM 55.2167 172.7500 235° Southwest 510 587 36,000  Level Anchorage Center
05:11PM 55.1333 172.5167 238° Southwest 510 587 36,000  Level Anchorage Center
05:12PM 55.0667 172.3500 235° Southwest 500 575 36,000  Level Anchorage Center
05:13PM 54.9833 172.1167 238° Southwest 510 587 36,000  Level Anchorage Center
05:14PM 54.9000 171.9333 232° Southwest 520 598 36,000  Level Anchorage Center
05:15PM 54.8167 171.7167 236° Southwest 520 598 36,000  Level Anchorage Center
05:16PM 54.7500 171.5333 238° Southwest 520 598 36,000  Level Anchorage Center
05:17PM 54.6500 171.3167 231° Southwest 530 610 36,000  Level Anchorage Center
05:18PM 54.5500 171.1000 232° Southwest 520 598 36,000  Level Anchorage Center
05:19PM 54.4833 170.9167 238° Southwest 520 598 36,000  Level Anchorage Center
05:20PM 54.3833 170.7000 232° Southwest 520 598 36,000  Level Anchorage Center
05:21PM 54.3167 170.5333 236° Southwest 520 598 36,000  Level Anchorage Center
05:22PM 54.2167 170.3167 232° Southwest 520 598 36,000  Level Anchorage Center
05:23PM 54.1500 170.1500 236° Southwest 510 587 36,000  Level Anchorage Center
05:24PM 54.0500 169.9333 232° Southwest 500 575 36,000  Level Anchorage Center
05:25PM 53.9667 169.7167 237° Southwest 520 598 36,000  Level Anchorage Center
05:26PM 53.8833 169.5500 230° Southwest 510 587 36,000  Level Anchorage Center
05:27PM 53.8000 169.3500 235° Southwest 520 598 36,000  Level Anchorage Center
05:28PM 53.7167 169.1667 233° Southwest 520 598 36,000  Level Anchorage Center
05:29PM 53.6500 168.9500 243° Southwest 520 598 36,000  Level Anchorage Center
05:31PM 53.5167 168.5500 241° Southwest 500 575 36,000  Level Anchorage Center
05:34PM 53.4308 168.3166 238° Southwest  Level FlightAware Approximate
05:41PM 52.9756 167.0383 240° Southwest  Level FlightAware Approximate
05:42PM 52.9097 166.8577 239° Southwest  Level FlightAware Approximate
05:43PM 52.8435 166.6777 239° Southwest  Level FlightAware Approximate
05:43PM 52.7333 166.3833 238° Southwest 473 544 36,000  Level Anchorage Center
05:44PM 52.7770 166.4982 239° Southwest  Level FlightAware Approximate
05:45PM 52.7103 166.3192 238° Southwest  Level FlightAware Approximate
05:46PM 52.6432 166.1408 238° Southwest  Level FlightAware Approximate
05:47PM 52.5760 165.9629 238° Southwest  Level FlightAware Approximate
05:48PM 52.5084 165.7856 238° Southwest  Level FlightAware Approximate
05:49PM 52.3084 165.2688 237° Southwest 473 544 36,000  Level FlightAware Transoceanic
05:50PM 52.2366 165.0852 237° Southwest 473 544 36,000  Level FlightAware Transoceanic
05:51PM 52.1645 164.9021 237° Southwest 473 544 36,000  Level FlightAware Transoceanic
05:52PM 52.0921 164.7196 237° Southwest 473 544 36,000  Level FlightAware Transoceanic
05:52PM 52.0333 164.5500 237° Southwest 495 570 36,000  Level Anchorage Center
05:53PM 52.0195 164.5378 237° Southwest 473 544 36,000  Level FlightAware Transoceanic
05:54PM 51.9465 164.3565 237° Southwest 473 544 36,000  Level FlightAware Transoceanic
05:55PM 51.8733 164.1758 237° Southwest 473 544 36,000  Level FlightAware Transoceanic
05:56PM 51.7998 163.9957 236° Southwest 473 544 36,000  Level FlightAware Transoceanic
05:57PM 51.7260 163.8161 236° Southwest 473 544 36,000  Level FlightAware Transoceanic
05:57PM 51.6500 163.6500 236° Southwest 478 550 36,000  Level Anchorage Center
05:58PM 51.5888 163.4683 236° Southwest 495 570 36,000  Level FlightAware Transoceanic
05:59PM 51.5138 163.2901 236° Southwest 495 570 36,000  Level FlightAware Transoceanic
06:00PM 51.4385 163.1124 236° Southwest 495 570 36,000  Level FlightAware Transoceanic
06:01PM 51.3629 162.9354 236° Southwest 495 570 36,000  Level FlightAware Transoceanic
06:02PM 51.2870 162.7589 235° Southwest 495 570 36,000  Level FlightAware Transoceanic
06:02PM 51.2833 162.7667 236° Southwest 483 556 36,000  Level Anchorage Center
06:03PM 51.2006 162.5855 235° Southwest 478 550 36,000  Level FlightAware Transoceanic
06:04PM 51.1248 162.4101 235° Southwest 478 550 36,000  Level FlightAware Transoceanic
06:05PM 51.0487 162.2353 235° Southwest 478 550 36,000  Level FlightAware Transoceanic
06:06PM 50.9724 162.0610 235° Southwest 478 550 36,000  Level FlightAware Transoceanic
06:07PM 50.8957 161.8874 235° Southwest 478 550 36,000  Level FlightAware Transoceanic
06:08PM 50.8239 161.7178 235° Southwest 483 556 36,000  Level FlightAware Transoceanic
06:09PM 50.7464 161.5450 235° Southwest 483 556 36,000  Level FlightAware Transoceanic
06:10PM 50.6687 161.3727 234° Southwest 483 556 36,000  Level FlightAware Transoceanic
06:11PM 50.5907 161.2011 234° Southwest 483 556 36,000  Level FlightAware Transoceanic
06:12PM 50.5125 161.0300 234° Southwest 483 556 36,000  Level FlightAware Transoceanic
06:12PM 50.5333 161.0667 234° Southwest 491 565 36,000  Level Anchorage Center
06:13PM 50.4340 160.8595 234° Southwest 483 556 36,000  Level FlightAware Transoceanic
06:14PM 50.3553 160.6895 234° Southwest 483 556 36,000  Level FlightAware Transoceanic
06:15PM 50.2763 160.5201 234° Southwest 483 556 36,000  Level FlightAware Transoceanic
06:16PM 50.1971 160.3513 234° Southwest 483 556 36,000  Level FlightAware Transoceanic
06:16PM 50.2000 160.3833 234° Southwest 491 565 36,000  Level Anchorage Center
06:17PM 50.1176 160.1830 234° Southwest 483 556 36,000  Level FlightAware Transoceanic
06:18PM 50.0166 159.9675 233° Southwest 491 565 36,000  Level FlightAware Transoceanic
06:19PM 49.9419 159.8124 233° Southwest 491 565 36,000  Level FlightAware Transoceanic
06:20PM 49.8670 159.6578 233° Southwest 491 565 36,000  Level FlightAware Transoceanic
06:21PM 49.7920 159.5036 233° Southwest 491 565 36,000  Level FlightAware Transoceanic
06:22PM 49.6376 159.1886 233° Southwest 491 565 36,000  Level FlightAware Transoceanic
06:23PM 49.5583 159.0276 233° Southwest 491 565 36,000  Level FlightAware Transoceanic
06:24PM 49.4787 158.8672 233° Southwest 491 565 36,000  Level FlightAware Transoceanic
06:25PM 49.3989 158.7073 232° Southwest 491 565 36,000  Level FlightAware Transoceanic
06:26PM 49.3190 158.5480 232° Southwest 491 565 36,000  Level FlightAware Transoceanic
06:27PM 49.2388 158.3891 232° Southwest 491 565 36,000  Level FlightAware Transoceanic
06:28PM 49.1583 158.2308 232° Southwest 491 565 36,000  Level FlightAware Transoceanic
06:29PM 49.0777 158.0730 232° Southwest 491 565 36,000  Level FlightAware Transoceanic
06:30PM 48.9968 157.9156 232° Southwest 491 565 36,000  Level FlightAware Transoceanic
06:31PM 48.9158 157.7589 232° Southwest 491 565 36,000  Level FlightAware Transoceanic
06:32PM 48.8345 157.6026 232° Southwest 491 565 36,000  Level FlightAware Transoceanic
06:33PM 48.7530 157.4468 231° Southwest 491 565 36,000  Level FlightAware Transoceanic
06:34PM 48.6713 157.2915 231° Southwest 491 565 36,000  Level FlightAware Transoceanic
06:35PM 48.5894 157.1367 231° Southwest 491 565 36,000  Level FlightAware Transoceanic
06:36PM 48.5073 156.9825 231° Southwest 491 565 36,000  Level FlightAware Transoceanic
06:37PM 48.4250 156.8287 231° Southwest 491 565 36,000  Level FlightAware Transoceanic
06:38PM 48.3425 156.6754 231° Southwest 491 565 36,000  Level FlightAware Transoceanic
06:39PM 48.2598 156.5226 231° Southwest 491 565 36,000  Level FlightAware Transoceanic
06:40PM 48.1768 156.3704 231° Southwest 491 565 36,000  Level FlightAware Transoceanic
06:41PM 48.0937 156.2186 231° Southwest 491 565 36,000  Level FlightAware Transoceanic
06:42PM 48.0104 156.0673 230° Southwest 491 565 36,000  Level FlightAware Transoceanic
06:43PM 47.9269 155.9165 230° Southwest 491 565 36,000  Level FlightAware Transoceanic
06:44PM 47.8431 155.7661 230° Southwest 491 565 36,000  Level FlightAware Transoceanic
06:45PM 47.7592 155.6163 230° Southwest 491 565 36,000  Level FlightAware Transoceanic
06:46PM 47.6751 155.4669 230° Southwest 491 565 36,000  Level FlightAware Transoceanic
06:47PM 47.5908 155.3181 230° Southwest 491 565 36,000  Level FlightAware Transoceanic
06:48PM 47.5063 155.1697 230° Southwest 491 565 36,000  Level FlightAware Transoceanic
06:49PM 47.4216 155.0218 230° Southwest 491 565 36,000  Level FlightAware Transoceanic
06:50PM 47.3368 154.8743 230° Southwest 491 565 36,000  Level FlightAware Transoceanic
06:51PM 47.2517 154.7274 229° Southwest 491 565 36,000  Level FlightAware Transoceanic
06:52PM 47.1665 154.5809 229° Southwest 491 565 36,000  Level FlightAware Transoceanic
06:53PM 47.0810 154.4348 229° Southwest 491 565 36,000  Level FlightAware Transoceanic
06:54PM 46.9954 154.2893 229° Southwest 491 565 36,000  Level FlightAware Transoceanic
06:55PM 46.9096 154.1442 229° Southwest 491 565 36,000  Level FlightAware Transoceanic
06:56PM 46.8236 153.9996 229° Southwest 491 565 36,000  Level FlightAware Transoceanic
06:57PM 46.7374 153.8554 229° Southwest 491 565 36,000  Level FlightAware Transoceanic
06:58PM 46.6511 153.7117 229° Southwest 491 565 36,000  Level FlightAware Transoceanic
06:59PM 46.5645 153.5684 229° Southwest 491 565 36,000  Level FlightAware Transoceanic
07:00PM 46.4779 153.4256 229° Southwest 491 565 36,000  Level FlightAware Transoceanic
07:01PM 46.3910 153.2833 228° Southwest 491 565 36,000  Level FlightAware Transoceanic
07:02PM 46.3039 153.1414 228° Southwest 491 565 36,000  Level FlightAware Transoceanic
07:03PM 46.2192 153.0041 228° Southwest  Level FlightAware Approximate
07:04PM 46.1343 152.8673 228° Southwest  Level FlightAware Approximate
07:05PM 46.1364 152.8719 228° Southwest  Level FlightAware Approximate
07:06PM 46.0508 152.7360 228° Southwest  Level FlightAware Approximate
07:07PM 45.9651 152.6006 228° Southwest  Level FlightAware Approximate
07:08PM 45.8793 152.4656 228° Southwest  Level FlightAware Approximate
07:09PM 45.7933 152.3310 228° Southwest  Level FlightAware Approximate
07:10PM 45.7071 152.1969 227° Southwest  Level FlightAware Approximate
07:11PM 45.6208 152.0631 227° Southwest  Level FlightAware Approximate
07:12PM 45.5343 151.9298 227° Southwest  Level FlightAware Approximate
07:13PM 45.4476 151.7968 227° Southwest  Level FlightAware Approximate
07:14PM 45.3608 151.6643 227° Southwest  Level FlightAware Approximate
07:15PM 45.2739 151.5322 227° Southwest  Level FlightAware Approximate
07:16PM 45.1868 151.4005 227° Southwest  Level FlightAware Approximate
07:17PM 45.0995 151.2692 227° Southwest  Level FlightAware Approximate
07:18PM 45.0121 151.1383 227° Southwest  Level FlightAware Approximate
07:19PM 44.9246 151.0078 227° Southwest  Level FlightAware Approximate
07:20PM 44.8369 150.8777 226° Southwest  Level FlightAware Approximate
07:21PM 44.7490 150.7479 226° Southwest  Level FlightAware Approximate
07:22PM 44.6610 150.6186 226° Southwest  Level FlightAware Approximate
07:23PM 44.5729 150.4897 226° Southwest  Level FlightAware Approximate
07:24PM 44.4846 150.3611 226° Southwest  Level FlightAware Approximate
07:25PM 44.3962 150.2330 226° Southwest  Level FlightAware Approximate
07:26PM 44.3076 150.1052 226° Southwest  Level FlightAware Approximate
07:27PM 44.2189 149.9779 226° Southwest  Level FlightAware Approximate
07:28PM 44.1301 149.8509 226° Southwest  Level FlightAware Approximate
07:29PM 44.0411 149.7242 226° Southwest  Level FlightAware Approximate
07:30PM 43.9519 149.5980 226° Southwest  Level FlightAware Approximate
07:31PM 43.8627 149.4722 225° Southwest  Level FlightAware Approximate
07:32PM 43.7733 149.3467 225° Southwest  Level FlightAware Approximate
07:33PM 43.6837 149.2216 225° Southwest  Level FlightAware Approximate
07:34PM 43.5940 149.0968 225° Southwest  Level FlightAware Approximate
07:35PM 43.5042 148.9725 225° Southwest  Level FlightAware Approximate
07:35PM 43.4330 148.8760 225° Southwest 435 501 37,000  Level FlightAware
07:36PM 43.4142 148.8486 225° Southwest  Level FlightAware Approximate
07:36PM 43.3700 148.7880 225° Southwest 435 501 37,000  Level FlightAware
07:36PM 43.3060 148.7000 225° Southwest 435 501 37,000  Level FlightAware
07:37PM 43.2160 148.5780 225° Southwest 433 498 37,000  Level FlightAware
07:38PM 43.1540 148.4930 225° Southwest 432 497 37,000  Level FlightAware
07:39PM 43.0980 148.4180 224° Southwest 432 497 37,000  Level FlightAware
07:40PM 43.0350 148.3330 225° Southwest 432 497 37,000  Level FlightAware
07:40PM 42.9510 148.2190 225° Southwest 434 499 37,000  Level FlightAware
07:41PM 42.8950 148.1440 224° Southwest 437 503 37,000  Level FlightAware
07:42PM 42.8400 148.0690 225° Southwest 437 503 37,000  Level FlightAware
07:43PM 42.7710 147.9770 224° Southwest 441 507 37,000  Level FlightAware
07:43PM 42.7010 147.8850 224° Southwest 446 513 37,000  Level FlightAware
07:44PM 42.6410 147.8050 224° Southwest 445 512 37,000  Level FlightAware
07:45PM 42.5670 147.7070 224° Southwest 438 504 37,000  Level FlightAware
07:46PM 42.4790 147.5920 224° Southwest 436 502 37,000  Level FlightAware
07:47PM 42.3850 147.4680 224° Southwest 434 499 37,000  Level FlightAware
07:48PM 42.3250 147.3890 224° Southwest 432 497 37,000  Level FlightAware
07:48PM 42.2600 147.3050 224° Southwest 430 495 37,000  Level FlightAware
07:49PM 42.2110 147.2400 225° Southwest 430 495 37,000  Level FlightAware
07:50PM 42.1520 147.1640 224° Southwest 432 497 37,000  Level FlightAware
07:50PM 42.0860 147.0780 224° Southwest 434 499 37,000  Level FlightAware
07:51PM 42.0350 147.0120 224° Southwest 434 499 37,000  Level FlightAware
07:52PM 41.9710 146.9290 224° Southwest 434 499 37,000  Level FlightAware
07:52PM 41.9100 146.8510 224° Southwest 432 497 37,000  Level FlightAware
07:53PM 41.8440 146.7670 223° Southwest 432 497 37,000  Level FlightAware
07:54PM 41.7720 146.6730 224° Southwest 430 495 37,000  Level FlightAware
07:55PM 41.7130 146.5980 224° Southwest 429 494 37,000  Level FlightAware
07:55PM 41.6540 146.5240 223° Southwest 429 494 37,000  Level FlightAware
07:56PM 41.5820 146.4320 224° Southwest 439 505 37,000  Level FlightAware
07:57PM 41.5150 146.3470 224° Southwest 442 509 37,000  Level FlightAware
07:58PM 41.4480 146.2630 223° Southwest 443 510 37,000  Level FlightAware
07:58PM 41.3930 146.1930 224° Southwest 444 511 37,000  Level FlightAware
07:59PM 41.3330 146.1180 223° Southwest 442 509 37,000  Level FlightAware
08:00PM 41.2710 146.0400 223° Southwest 425 489 37,000  Level FlightAware
08:00PM 41.2070 145.9600 223° Southwest 417 480 37,000  Level FlightAware
08:01PM 41.1240 145.8570 223° Southwest 404 465 37,000  Level FlightAware
08:02PM 41.0760 145.7980 223° Southwest 408 470 37,000  Level FlightAware
08:03PM 41.0120 145.7180 223° Southwest 421 484 37,000  Level FlightAware
08:03PM 40.9540 145.6470 223° Southwest 419 482 37,000  Level FlightAware
08:04PM 40.8970 145.5760 223° Southwest 420 483 37,000  Level FlightAware
08:06PM 40.7600 145.4090 223° Southwest 423 487 37,000  Level FlightAware
08:06PM 40.7090 145.3460 223° Southwest 425 489 37,000  Level FlightAware
08:07PM 40.6510 145.2760 222° Southwest 435 501 37,000  Level FlightAware
08:08PM 40.5930 145.2040 223° Southwest 438 504 37,000  Level FlightAware
08:08PM 40.5470 145.1490 222° Southwest 438 504 37,000  Level FlightAware
08:09PM 40.4870 145.0750 223° Southwest 438 504 37,000  Level FlightAware
08:10PM 40.4410 145.0190 223° Southwest 438 504 37,000  Level FlightAware
08:10PM 40.3800 144.9430 224° Southwest 438 504 37,000  Level FlightAware
08:13PM 40.1831 144.7062 223° Southwest  Level FlightAware Approximate
08:14PM 40.0891 144.5940 222° Southwest  Level FlightAware Approximate
08:15PM 39.9951 144.4820 222° Southwest  Level FlightAware Approximate
08:16PM 39.9010 144.3703 222° Southwest  Level FlightAware Approximate
08:17PM 39.8067 144.2590 222° Southwest  Level FlightAware Approximate
08:18PM 39.7123 144.1480 222° Southwest  Level FlightAware Approximate
08:18PM 39.5460 143.9610 222° Southwest 480 552 37,000  Level FlightAware
08:19PM 39.6179 144.0372 222° Southwest  Level FlightAware Approximate
08:19PM 39.4770 143.8830 221° Southwest 478 550 37,000  Level FlightAware
08:20PM 39.3740 143.8270 203° Southwest 494 568 37,000  Level FlightAware
08:21PM 39.2590 143.7800 198° South 502 578 37,000  Level FlightAware
08:21PM 39.1710 143.7440 198° South 503 579 37,000  Level FlightAware
08:22PM 39.0700 143.7020 198° South 506 582 37,000  Level FlightAware
08:23PM 39.0030 143.6740 198° South 506 582 37,000  Level FlightAware
08:23PM 38.9030 143.6340 197° South 504 580 37,000  Level FlightAware
08:24PM 38.8030 143.5930 198° South 503 579 37,000  Level FlightAware
08:25PM 38.7160 143.5580 197° South 503 579 37,000  Level FlightAware
08:26PM 38.6080 143.5140 198° South 492 566 37,000  Level FlightAware
08:26PM 38.5280 143.4820 197° South 502 578 37,000  Level FlightAware
08:27PM 38.4170 143.4380 197° South 502 578 37,000  Level FlightAware
08:28PM 38.3260 143.4010 198° South 507 583 37,000  Level FlightAware
08:29PM 38.2310 143.3630 197° South 508 585 37,000  Level FlightAware
08:29PM 38.1360 143.3250 197° South 506 582 37,000  Level FlightAware
08:30PM 38.0460 143.2890 197° South 506 582 37,000  Level FlightAware
08:31PM 37.9580 143.2540 197° South 507 583 37,000  Level FlightAware
08:31PM 37.8680 143.2180 198° South 509 586 37,000  Level FlightAware
08:32PM 37.7890 143.1870 197° South 509 586 37,000 60 Level FlightAware
08:32PM 37.7000 143.1520 197° South 509 586 37,100  Climbing FlightAware
08:33PM 37.6100 143.1170 197° South 508 585 37,000 -120 Descending FlightAware
08:34PM 37.5190 143.0820 197° South 508 585 37,000  Level FlightAware
08:35PM 37.4200 143.0430 197° South 507 583 37,000  Level FlightAware
08:35PM 37.3190 143.0010 198° South 502 578 37,000  Level FlightAware
08:36PM 37.2330 142.9570 202° Southwest 502 578 37,000 -120 Level FlightAware
08:37PM 37.1360 142.9080 202° Southwest 500 575 36,900  Descending FlightAware
08:37PM 37.0710 142.8750 202° Southwest 501 577 37,000 60 Climbing FlightAware
08:38PM 36.9750 142.8260 202° Southwest 504 580 37,000  Level FlightAware
08:39PM 36.8330 142.7550 202° Southwest 501 577 37,000  Level FlightAware
08:40PM 36.7460 142.7120 202° Southwest 505 581 37,100  Climbing FlightAware
08:40PM 36.6460 142.6620 202° Southwest 507 583 37,000 -120 Descending FlightAware
08:41PM 36.5590 142.6150 203° Southwest 511 588 37,000  Level FlightAware
08:42PM 36.4770 142.5580 209° Southwest 501 577 37,000  Level FlightAware
08:42PM 36.3950 142.5010 209° Southwest 500 575 37,000  Level FlightAware
08:43PM 36.3030 142.4370 209° Southwest 497 572 37,000  Level FlightAware
08:44PM 36.2320 142.3880 209° Southwest 496 571 37,000  Level FlightAware
08:44PM 36.1500 142.3310 209° Southwest 497 572 37,000 -900 Level FlightAware
08:45PM 36.0580 142.2680 209° Southwest 519 597 35,800 -2,040 Descending FlightAware
08:46PM 35.9930 142.2020 219° Southwest 502 578 34,300 -3,720 Descending FlightAware
08:47PM 35.9440 142.0780 244° Southwest 484 557 30,600 -4,080 Descending FlightAware
08:47PM 35.9340 141.9700 264° West 466 536 28,300 -4,200 Descending FlightAware
08:48PM 35.9250 141.8510 265° West 468 539 24,700 -4,680 Descending FlightAware
08:49PM 35.9170 141.7450 265° West 465 535 21,700 -3,360 Descending FlightAware
08:49PM 35.9090 141.6420 265° West 435 501 20,100 -2,340 Descending FlightAware
08:50PM 35.9020 141.5530 264° West 416 479 18,600 -2,460 Descending FlightAware
08:51PM 35.8920 141.4200 265° West 392 451 16,300 -2,220 Descending FlightAware
08:52PM 35.8840 141.3370 263° West 381 438 14,900 -2,160 Descending FlightAware
08:53PM 35.8380 141.2200 244° Southwest 361 415 12,800 -2,280 Descending FlightAware
08:53PM 35.8120 141.1590 242° Southwest 351 404 11,500 -1,620 Descending FlightAware
08:54PM 35.7800 141.0910 240° Southwest 321 369 10,800 -1,080 Descending FlightAware
08:55PM 35.7520 141.0300 241° Southwest 289 333 10,000 -1,320 Descending FlightAware
08:55PM 35.7320 140.9890 239° Southwest 277 319 9,300 -1,680 Descending FlightAware
08:56PM 35.7050 140.9370 237° Southwest 293 337 8,100 -1,740 Descending FlightAware
08:56PM 35.6830 140.8900 240° Southwest 289 333 7,300 -1,500 Descending FlightAware
08:57PM 35.6480 140.8130 241° Southwest 277 319 6,100 -900 Descending FlightAware
08:58PM 35.6350 140.7830 242° Southwest 277 319 6,100 -1,440 Level FlightAware
08:58PM 35.6140 140.7350 242° Southwest 277 319 4,700 -1,740 Descending FlightAware
08:59PM 35.6020 140.6970 249° West 267 307 4,300 -780 Descending FlightAware
08:59PM 35.5910 140.6620 249° West 254 292 4,000 -1,020 Descending FlightAware
09:00PM 35.5840 140.5990 262° West 228 262 3,200 -720 Descending FlightAware
09:00PM 35.5830 140.5590 268° West 211 243 3,200 -120 Level FlightAware
09:01PM 35.5960 140.5310 300° West 179 206 3,100 -120 Descending FlightAware
09:01PM 35.6130 140.5160 324° Northwest 175 201 3,100  Level FlightAware
09:02PM 35.6320 140.5030 331° Northwest 164 189 3,100  Level FlightAware
09:02PM 35.6500 140.4900 330° Northwest 149 171 3,100 -120 Level FlightAware
09:03PM 35.6650 140.4790 329° Northwest 149 171 3,000 -660 Descending FlightAware
09:03PM 35.6830 140.4670 332° Northwest 143 165 2,500 -900 Descending FlightAware
09:04PM 35.6990 140.4550 329° Northwest 152 175 2,200 -780 Descending FlightAware
09:04PM 35.7150 140.4430 329° Northwest 148 170 1,800 -780 Descending FlightAware
09:04PM 35.7320 140.4310 330° Northwest 147 169 1,500 -480 Descending FlightAware
09:05PM 35.7520 140.4160 329° Northwest 147 169 1,300 -360 Descending FlightAware
09:08PM 35.7500 140.3833 253° West  Level FlightAware Approximate
09:09PM 35.7647 140.3864 253° West  Level Estimated
09:10PM 35.7647 140.3864 253° West  Level Estimated
09:11PM 35.7647 140.3864 253° West  Level Estimated
09:12PM 35.7647 140.3864 253° West  Level Estimated
09:13PM 35.7647 140.3864 253° West  Level Estimated
09:14PM 35.7647 140.3864 253° West  Level Estimated
09:15PM 35.7647 140.3864 253° West  Level Estimated
09:16PM 35.7647 140.3864 253° West  Level Estimated
09:17PM 35.7647 140.3864 253° West  Level Estimated
09:18PM 35.7647 140.3864 253° West  Level Estimated